createdAt,value
2023-04-06T00:02:26.165Z,61.64
2023-04-06T00:05:32.304Z,61.09
2023-04-06T00:08:39.452Z,60.90
2023-04-06T00:11:45.392Z,61.15
2023-04-06T00:14:54.949Z,60.91
2023-04-06T00:18:00.998Z,60.86
2023-04-06T00:21:08.475Z,60.86
2023-04-06T00:24:14.396Z,61.06
2023-04-06T00:27:21.321Z,61.07
2023-04-06T00:30:29.929Z,61.08
2023-04-06T00:33:37.336Z,60.99
2023-04-06T00:36:43.371Z,61.38
2023-04-06T00:39:50.397Z,61.52
2023-04-06T00:42:56.624Z,62.04
2023-04-06T00:46:08.017Z,62.05
2023-04-06T00:49:14.095Z,62.25
2023-04-06T00:52:21.258Z,62.45
2023-04-06T00:55:28.150Z,62.16
2023-04-06T00:58:39.293Z,62.18
2023-04-06T01:01:49.810Z,62.29
2023-04-06T01:05:21.782Z,62.41
2023-04-06T01:08:32.063Z,62.61
2023-04-06T01:11:52.334Z,62.71
2023-04-06T01:15:02.789Z,62.89
2023-04-06T01:18:15.469Z,62.86
2023-04-06T01:21:31.322Z,62.86
2023-04-06T01:25:03.837Z,63.13
2023-04-06T01:28:15.491Z,63.41
2023-04-06T01:31:36.600Z,63.82
2023-04-06T01:34:42.770Z,63.84
2023-04-06T01:37:49.910Z,63.88
2023-04-06T01:41:06.542Z,64.43
2023-04-06T01:44:24.561Z,64.67
2023-04-06T01:47:43.064Z,64.98
2023-04-06T01:50:51.627Z,65.02
2023-04-06T01:54:02.955Z,65.19
2023-04-06T01:57:32.329Z,65.37
2023-04-06T02:00:48.268Z,65.10
2023-04-06T02:03:56.061Z,64.90
2023-04-06T02:07:02.066Z,65.14
2023-04-06T02:10:17.219Z,65.07
2023-04-06T02:13:27.085Z,65.11
2023-04-06T02:16:35.519Z,65.39
2023-04-06T02:19:41.870Z,65.37
2023-04-06T02:22:48.971Z,65.42
2023-04-06T02:25:54.916Z,65.52
2023-04-06T02:29:04.323Z,65.72
2023-04-06T02:32:12.484Z,66.04
2023-04-06T02:35:19.464Z,66.28
2023-04-06T02:38:29.094Z,66.46
2023-04-06T02:41:35.842Z,66.49
2023-04-06T02:44:45.595Z,66.65
2023-04-06T02:47:52.921Z,66.27
2023-04-06T02:50:58.852Z,66.42
2023-04-06T02:54:05.676Z,66.20
2023-04-06T02:57:12.411Z,66.33
2023-04-06T03:00:27.574Z,66.32
2023-04-06T03:03:33.718Z,66.56
2023-04-06T03:06:40.720Z,66.56
2023-04-06T03:10:00.399Z,66.55
2023-04-06T03:13:14.668Z,66.62
2023-04-06T03:16:42.230Z,66.61
2023-04-06T03:19:49.117Z,66.38
2023-04-06T03:22:56.644Z,66.50
2023-04-06T03:26:08.130Z,66.80
2023-04-06T03:29:14.185Z,66.70
2023-04-06T03:32:23.617Z,66.82
2023-04-06T03:35:29.715Z,67.02
2023-04-06T03:38:38.668Z,67.37
2023-04-06T03:41:54.326Z,67.61
2023-04-06T03:45:21.467Z,67.37
2023-04-06T03:48:33.676Z,67.74
2023-04-06T03:51:44.248Z,67.91
2023-04-06T03:54:50.143Z,68.04
2023-04-06T03:57:56.896Z,67.72
2023-04-06T04:01:04.216Z,67.97
2023-04-06T04:04:14.365Z,67.83
2023-04-06T04:07:20.358Z,67.77
2023-04-06T04:10:27.614Z,67.84
2023-04-06T04:13:33.648Z,68.01
2023-04-06T04:16:43.207Z,68.29
2023-04-06T04:19:54.910Z,68.24
2023-04-06T04:23:07.881Z,68.25
2023-04-06T04:26:24.659Z,68.23
2023-04-06T04:29:31.744Z,68.53
2023-04-06T04:32:42.531Z,68.46
2023-04-06T04:35:53.047Z,68.39
2023-04-06T04:39:02.473Z,68.45
2023-04-06T04:42:12.548Z,68.26
2023-04-06T04:45:26.041Z,68.29
2023-04-06T04:48:33.767Z,68.28
2023-04-06T04:51:44.993Z,68.23
2023-04-06T04:54:53.830Z,67.61
2023-04-06T04:58:07.059Z,67.26
2023-04-06T05:01:28.325Z,67.73
2023-04-06T05:04:36.196Z,67.03
2023-04-06T05:07:47.423Z,66.96
2023-04-06T05:11:06.939Z,66.36
2023-04-06T05:14:19.804Z,65.71
2023-04-06T05:17:29.720Z,64.69
2023-04-06T05:20:37.394Z,64.04
2023-04-06T05:23:46.018Z,63.00
2023-04-06T05:26:53.648Z,63.04
2023-04-06T05:30:03.497Z,62.26
2023-04-06T05:33:14.427Z,61.30
2023-04-06T05:36:35.846Z,60.76
2023-04-06T05:39:51.034Z,60.25
2023-04-06T05:42:58.864Z,60.10
2023-04-06T05:46:05.851Z,59.80
2023-04-06T05:49:12.516Z,59.60
2023-04-06T05:52:19.990Z,59.19
2023-04-06T05:55:30.864Z,58.59
2023-04-06T05:58:50.104Z,57.88
2023-04-06T06:02:02.785Z,57.18
2023-04-06T06:05:13.787Z,56.60
2023-04-06T06:08:22.052Z,56.44
2023-04-06T06:11:34.324Z,54.59
2023-04-06T06:14:41.742Z,54.45
2023-04-06T06:17:48.696Z,52.98
2023-04-06T06:21:07.594Z,52.69
2023-04-06T06:24:14.846Z,51.97
2023-04-06T06:27:23.998Z,51.49
2023-04-06T06:30:31.215Z,51.44
2023-04-06T06:33:38.324Z,51.46
2023-04-06T06:36:47.593Z,50.98
2023-04-06T06:39:55.372Z,50.71
2023-04-06T06:43:05.708Z,49.60
2023-04-06T06:46:16.656Z,48.75
2023-04-06T06:49:24.050Z,47.97
2023-04-06T06:52:30.233Z,48.46
2023-04-06T06:55:37.121Z,48.84
2023-04-06T06:58:46.421Z,48.03
2023-04-06T07:01:54.987Z,48.79
2023-04-06T07:05:01.072Z,47.30
2023-04-06T07:08:10.006Z,47.46
2023-04-06T07:11:16.004Z,48.92
2023-04-06T07:14:25.327Z,46.28
2023-04-06T07:17:31.490Z,46.55
2023-04-06T07:20:38.366Z,46.33
2023-04-06T07:23:47.922Z,45.58
2023-04-06T07:26:55.140Z,45.69
2023-04-06T07:30:05.326Z,46.10
2023-04-06T07:33:12.299Z,43.47
2023-04-06T07:36:19.534Z,42.91
2023-04-06T07:39:27.663Z,42.43
2023-04-06T07:42:36.286Z,42.11
2023-04-06T07:45:49.397Z,39.64
2023-04-06T07:49:06.350Z,37.96
2023-04-06T07:52:14.867Z,35.84
2023-04-06T07:55:22.476Z,36.28
2023-04-06T07:58:29.176Z,35.85
2023-04-06T08:01:38.052Z,34.57
2023-04-06T08:04:46.180Z,34.83
2023-04-06T08:07:52.189Z,34.91
2023-04-06T08:11:00.766Z,34.18
2023-04-06T08:14:08.320Z,34.01
2023-04-06T08:17:17.849Z,34.34
2023-04-06T08:20:26.504Z,33.67
2023-04-06T08:23:38.902Z,33.83
2023-04-06T08:26:48.421Z,35.04
2023-04-06T08:29:55.241Z,35.97
2023-04-06T08:33:15.091Z,36.45
2023-04-06T08:36:24.056Z,35.79
2023-04-06T08:39:31.999Z,36.19
2023-04-06T08:42:48.364Z,38.14
2023-04-06T08:45:54.444Z,38.15
2023-04-06T08:49:08.178Z,37.41
2023-04-06T08:52:16.083Z,38.64
2023-04-06T08:55:23.789Z,39.43
2023-04-06T08:58:40.872Z,40.42
2023-04-06T09:01:50.562Z,40.49
2023-04-06T09:04:59.943Z,39.07
2023-04-06T09:08:07.950Z,40.12
2023-04-06T09:11:15.361Z,40.83
2023-04-06T09:14:44.844Z,41.24
2023-04-06T09:17:50.872Z,41.67
2023-04-06T09:21:08.031Z,41.65
2023-04-06T09:24:16.516Z,40.77
2023-04-06T09:27:36.173Z,42.32
2023-04-06T09:30:53.309Z,40.51
2023-04-06T09:34:03.379Z,41.14
2023-04-06T09:37:24.898Z,39.93
2023-04-06T09:40:31.946Z,40.62
2023-04-06T09:43:38.011Z,39.57
2023-04-06T09:46:59.609Z,39.56
2023-04-06T09:50:09.767Z,40.18
2023-04-06T09:53:23.477Z,39.16
2023-04-06T09:56:37.781Z,40.20
2023-04-06T09:59:56.012Z,39.71
2023-04-06T10:03:12.462Z,39.81
2023-04-06T10:06:26.891Z,40.23
2023-04-06T10:09:37.426Z,39.67
2023-04-06T10:13:00.295Z,41.47
2023-04-06T10:16:08.036Z,40.51
2023-04-06T10:19:28.929Z,39.92
2023-04-06T10:22:52.125Z,38.74
2023-04-06T10:26:06.002Z,39.04
2023-04-06T10:29:13.302Z,39.10
2023-04-06T10:32:20.214Z,39.33
2023-04-06T10:35:29.029Z,38.09
2023-04-06T10:38:42.063Z,38.40
2023-04-06T10:41:53.608Z,38.53
2023-04-06T10:45:01.024Z,38.62
2023-04-06T10:48:20.046Z,38.46
2023-04-06T10:51:32.262Z,38.71
2023-04-06T10:54:43.167Z,38.83
2023-04-06T10:57:59.959Z,38.80
2023-04-06T11:01:21.545Z,38.85
2023-04-06T11:04:29.500Z,39.59
2023-04-06T11:07:35.507Z,40.21
2023-04-06T11:10:42.302Z,41.02
2023-04-06T11:13:54.598Z,41.64
2023-04-06T11:17:01.443Z,42.04
2023-04-06T11:20:16.502Z,42.04
2023-04-06T11:23:29.655Z,42.83
2023-04-06T11:26:35.887Z,42.54
2023-04-06T11:29:47.236Z,42.41
2023-04-06T11:32:53.478Z,41.94
2023-04-06T11:36:02.211Z,41.10
2023-04-06T11:39:08.498Z,41.96
2023-04-06T11:42:16.605Z,41.52
2023-04-06T11:45:25.614Z,41.45
2023-04-06T11:48:32.825Z,42.20
2023-04-06T11:51:41.372Z,41.55
2023-04-06T11:54:50.075Z,41.00
2023-04-06T11:57:56.072Z,41.77
2023-04-06T12:01:10.731Z,41.88
2023-04-06T12:04:16.718Z,41.35
2023-04-06T12:07:23.565Z,41.58
2023-04-06T12:10:29.564Z,40.53
2023-04-06T12:13:36.356Z,41.63
2023-04-06T12:16:45.428Z,41.86
2023-04-06T12:19:52.166Z,42.40
2023-04-06T12:23:00.928Z,42.25
2023-04-06T12:26:12.951Z,41.88
2023-04-06T12:29:19.418Z,41.98
2023-04-06T12:32:28.937Z,41.96
2023-04-06T12:35:42.834Z,42.36
2023-04-06T12:38:55.968Z,42.52
2023-04-06T12:42:02.806Z,42.55
2023-04-06T12:45:13.485Z,42.34
2023-04-06T12:48:22.592Z,42.69
2023-04-06T12:51:32.400Z,43.42
2023-04-06T12:54:38.434Z,43.29
2023-04-06T12:57:45.328Z,43.98
2023-04-06T13:00:51.945Z,44.22
2023-04-06T13:04:05.006Z,45.54
2023-04-06T13:07:11.121Z,45.72
2023-04-06T13:10:18.098Z,45.28
2023-04-06T13:13:28.600Z,45.12
2023-04-06T13:16:35.429Z,46.70
2023-04-06T13:19:43.998Z,49.10
2023-04-06T13:22:50.676Z,49.92
2023-04-06T13:26:04.440Z,51.14
2023-04-06T13:29:11.604Z,51.88
2023-04-06T13:32:17.454Z,53.66
2023-04-06T13:35:27.591Z,54.77
2023-04-06T13:38:34.907Z,56.42
2023-04-06T13:41:41.662Z,57.28
2023-04-06T13:44:52.012Z,57.79
2023-04-06T13:47:58.775Z,58.88
2023-04-06T13:51:15.870Z,59.85
2023-04-06T13:54:23.877Z,61.68
2023-04-06T13:57:30.979Z,62.89
2023-04-06T14:00:43.294Z,63.62
2023-04-06T14:03:50.007Z,64.38
2023-04-06T14:06:59.758Z,64.94
2023-04-06T14:10:14.873Z,65.43
2023-04-06T14:13:21.847Z,66.74
2023-04-06T14:16:28.809Z,67.35
2023-04-06T14:19:37.399Z,68.07
2023-04-06T14:22:46.374Z,67.77
2023-04-06T14:25:53.115Z,68.09
2023-04-06T14:28:59.116Z,67.96
2023-04-06T14:32:05.816Z,67.08
2023-04-06T14:35:14.276Z,66.49
2023-04-06T14:38:23.674Z,64.19
2023-04-06T14:41:29.530Z,62.89
2023-04-06T14:44:38.488Z,62.18
2023-04-06T14:47:44.419Z,61.29
2023-04-06T14:50:57.726Z,62.75
2023-04-06T14:54:16.451Z,62.35
2023-04-06T14:57:23.220Z,62.40
2023-04-06T15:00:29.344Z,62.40
2023-04-06T15:03:39.148Z,63.46
2023-04-06T15:06:45.084Z,63.63
2023-04-06T15:09:54.660Z,62.32
2023-04-06T15:13:00.702Z,63.80
2023-04-06T15:16:09.021Z,63.81
2023-04-06T15:19:15.377Z,64.21
2023-04-06T15:22:24.884Z,63.58
2023-04-06T15:25:36.087Z,63.91
2023-04-06T15:28:43.270Z,63.49
2023-04-06T15:31:49.753Z,63.98
2023-04-06T15:35:09.053Z,63.90
2023-04-06T15:38:26.234Z,64.55
2023-04-06T15:41:40.576Z,64.79
2023-04-06T15:44:46.835Z,65.12
2023-04-06T15:47:54.193Z,65.36
2023-04-06T15:51:01.829Z,65.69
2023-04-06T15:54:09.696Z,66.11
2023-04-06T15:57:26.618Z,66.05
2023-04-06T16:00:33.786Z,65.76
2023-04-06T16:03:40.035Z,65.97
2023-04-06T16:06:46.839Z,66.28
2023-04-06T16:09:56.855Z,65.81
2023-04-06T16:13:06.343Z,65.94
2023-04-06T16:16:13.034Z,65.69
2023-04-06T16:19:21.783Z,65.81
2023-04-06T16:22:29.001Z,65.57
2023-04-06T16:25:35.901Z,65.72
2023-04-06T16:28:44.585Z,65.55
2023-04-06T16:31:51.402Z,64.91
2023-04-06T16:34:57.619Z,64.84
2023-04-06T16:38:04.618Z,64.81
2023-04-06T16:41:17.445Z,64.66
2023-04-06T16:44:27.506Z,63.97
2023-04-06T16:47:33.459Z,64.11
2023-04-06T16:50:40.254Z,63.58
2023-04-06T16:53:47.754Z,63.86
2023-04-06T16:56:54.669Z,63.72
2023-04-06T17:00:05.763Z,64.14
2023-04-06T17:03:19.102Z,64.79
2023-04-06T17:06:26.016Z,64.88
2023-04-06T17:12:59.946Z,65.76
2023-04-06T17:16:10.339Z,65.92
2023-04-06T17:19:16.492Z,67.16
2023-04-06T17:22:24.613Z,67.61
2023-04-06T17:25:35.936Z,68.25
2023-04-06T17:28:42.776Z,68.08
2023-04-06T17:31:54.058Z,68.91
2023-04-06T17:35:00.822Z,69.45
2023-04-06T17:38:08.519Z,70.18
2023-04-06T17:41:17.512Z,70.53
2023-04-06T17:44:24.545Z,71.16
2023-04-06T17:47:36.374Z,72.22
2023-04-06T17:50:47.274Z,72.89
2023-04-06T17:53:55.078Z,73.23
2023-04-06T17:57:02.163Z,73.63
2023-04-06T18:00:12.497Z,73.62
2023-04-06T18:03:23.417Z,73.92
2023-04-06T18:06:33.122Z,73.90
2023-04-06T18:09:46.542Z,74.18
2023-04-06T18:12:54.119Z,74.92
2023-04-06T18:16:10.136Z,75.65
2023-04-06T18:19:19.656Z,76.13
2023-04-06T18:22:25.604Z,76.75
2023-04-06T18:25:35.050Z,77.33
2023-04-06T18:28:41.028Z,77.69
2023-04-06T18:31:50.854Z,77.85
2023-04-06T18:35:00.949Z,78.36
2023-04-06T18:38:08.045Z,78.21
2023-04-06T18:41:16.583Z,78.08
2023-04-06T18:44:26.832Z,78.83
2023-04-06T18:47:32.858Z,78.50
2023-04-06T18:50:42.275Z,79.09
2023-04-06T18:53:51.187Z,79.83
2023-04-06T18:56:58.308Z,80.06
2023-04-06T19:00:13.979Z,80.25
2023-04-06T19:03:22.433Z,80.72
2023-04-06T19:06:31.510Z,80.87
2023-04-06T19:09:43.322Z,80.65
2023-04-06T19:12:50.019Z,80.99
2023-04-06T19:15:57.319Z,80.79
2023-04-06T19:19:03.935Z,80.85
2023-04-06T19:22:15.274Z,81.24
2023-04-06T19:25:22.303Z,81.35
2023-04-06T19:28:29.283Z,81.13
2023-04-06T19:31:45.128Z,81.97
2023-04-06T19:34:52.091Z,82.10
2023-04-06T19:38:04.993Z,81.68
2023-04-06T19:41:12.388Z,81.97
2023-04-06T19:44:18.413Z,81.70
2023-04-06T19:47:25.577Z,82.00
2023-04-06T19:50:31.644Z,82.43
2023-04-06T19:53:41.316Z,82.78
2023-04-06T19:56:48.252Z,82.89
2023-04-06T19:59:56.542Z,83.03
2023-04-06T20:03:03.129Z,83.09
2023-04-06T20:06:15.205Z,82.92
2023-04-06T20:09:24.734Z,83.17
2023-04-06T20:12:31.897Z,83.24
2023-04-06T20:15:38.273Z,83.85
2023-04-06T20:18:46.542Z,83.92
2023-04-06T20:21:52.524Z,84.23
2023-04-06T20:25:10.733Z,83.54
2023-04-06T20:28:24.198Z,84.17
2023-04-06T20:31:32.029Z,84.30
2023-04-06T20:34:38.723Z,84.06
2023-04-06T20:37:48.171Z,84.13
2023-04-06T20:41:00.141Z,83.86
2023-04-06T20:44:09.380Z,84.37
2023-04-06T20:47:15.424Z,84.15
2023-04-06T20:50:22.800Z,83.20
2023-04-06T20:53:28.883Z,83.20
2023-04-06T20:56:40.062Z,83.13
2023-04-06T20:59:48.209Z,83.04
2023-04-06T21:02:56.592Z,83.07
2023-04-06T21:06:02.933Z,82.44
2023-04-06T21:09:09.779Z,82.16
2023-04-06T21:12:19.971Z,82.89
2023-04-06T21:15:26.739Z,82.96
2023-04-06T21:18:34.579Z,82.61
2023-04-06T21:21:41.615Z,83.01
2023-04-06T21:24:47.893Z,83.52
2023-04-06T21:27:58.813Z,83.01
2023-04-06T21:31:11.072Z,83.34
2023-04-06T21:34:18.418Z,83.00
2023-04-06T21:37:24.834Z,83.74
2023-04-06T21:40:34.619Z,83.83
2023-04-06T21:43:43.546Z,83.67
2023-04-06T21:46:50.242Z,83.70
2023-04-06T21:49:56.145Z,83.54
2023-04-06T21:53:03.072Z,83.23
2023-04-06T21:56:09.538Z,83.61
2023-04-06T21:59:18.891Z,83.42
2023-04-06T22:02:32.635Z,83.46
2023-04-06T22:05:41.244Z,83.54
2023-04-06T22:08:49.568Z,83.69
2023-04-06T22:11:56.308Z,83.17
2023-04-06T22:15:04.971Z,83.32
2023-04-06T22:18:11.996Z,83.80
2023-04-06T22:21:18.036Z,84.00
2023-04-06T22:24:24.841Z,84.20
2023-04-06T22:27:31.142Z,84.08
2023-04-06T22:30:40.482Z,84.18
2023-04-06T22:33:46.631Z,84.27
2023-04-06T22:36:53.251Z,84.36
2023-04-06T22:39:59.182Z,84.37
2023-04-06T22:43:05.827Z,84.31
2023-04-06T22:46:14.361Z,84.33
2023-04-06T22:49:21.092Z,84.71
2023-04-06T22:52:27.278Z,84.98
2023-04-06T22:55:41.166Z,84.47
2023-04-06T22:58:47.368Z,84.22
2023-04-06T23:02:00.069Z,84.23
2023-04-06T23:05:13.290Z,84.37
2023-04-06T23:08:20.360Z,84.63
2023-04-06T23:11:26.249Z,85.02
2023-04-06T23:14:33.035Z,84.60
2023-04-06T23:17:42.009Z,84.11
2023-04-06T23:20:48.757Z,84.31
2023-04-06T23:23:54.610Z,84.60
2023-04-06T23:27:01.580Z,84.12
2023-04-06T23:30:08.903Z,83.99
2023-04-06T23:33:18.337Z,84.48
2023-04-06T23:36:24.313Z,84.50
2023-04-06T23:39:31.268Z,84.14
2023-04-06T23:42:37.190Z,84.51
2023-04-06T23:45:44.787Z,84.45
2023-04-06T23:48:53.487Z,84.06
2023-04-06T23:52:00.233Z,84.57
2023-04-06T23:55:11.438Z,84.67
2023-04-06T23:58:18.194Z,84.36
